Koenig, Missouri
Current Conditions -  °F | °C
As of 7:53 AM on Wednesday 22 Oct 2014 (Local Time) from KVIH Reporting Station
Clear Clear  
Wind Chill: 38°   Ceiling: Unl
Heat Index: 42°   Visibility: 10mi
Dew Point: 39°   Wind: 7mph
Humidity: 89%   Direction: 100°E
Pressure: 30.25"   Gusts: NA
Location:  38.2601°N, 91.7526°W
Report Text: KVIH 221253Z AUTO 10006KT 10SM CLR 06/04 A3025 RMK AO2 SLP244 T00560039
Loading
Personal Weather Stations






























Interactive Weather Map
Tropical Storm Tracking
New forecast layout! Learn more

10-Day Weather Forecast

Advertisements
Track Severe Weather on mobile